createdAt,value
2022-09-28T00:01:16.287Z,15.12
2022-09-28T00:03:44.538Z,15.10
2022-09-28T00:06:15.756Z,15.16
2022-09-28T00:08:45.394Z,14.82
2022-09-28T00:11:15.996Z,14.82
2022-09-28T00:13:45.561Z,14.91
2022-09-28T00:16:15.969Z,14.91
2022-09-28T00:18:45.653Z,15.13
2022-09-28T00:21:16.339Z,15.17
2022-09-28T00:24:04.495Z,15.16
2022-09-28T00:26:34.418Z,15.05
2022-09-28T00:29:04.140Z,14.84
2022-09-28T00:31:34.006Z,14.73
2022-09-28T00:34:04.889Z,14.57
2022-09-28T00:36:36.030Z,14.34
2022-09-28T00:39:08.819Z,14.66
2022-09-28T00:41:37.110Z,14.66
2022-09-28T00:44:38.442Z,14.60
2022-09-28T00:47:26.883Z,14.86
2022-09-28T00:49:58.621Z,14.81
2022-09-28T00:52:31.011Z,14.86
2022-09-28T00:55:03.069Z,14.96
2022-09-28T00:57:32.099Z,14.64
2022-09-28T01:00:01.883Z,14.69
2022-09-28T01:02:30.036Z,14.87
2022-09-28T01:04:59.915Z,14.94
2022-09-28T01:07:28.768Z,14.89
2022-09-28T01:09:56.932Z,14.89
2022-09-28T01:12:26.228Z,14.99
2022-09-28T01:14:54.462Z,15.05
2022-09-28T01:17:27.327Z,15.05
2022-09-28T01:20:45.172Z,14.90
2022-09-28T01:23:38.654Z,14.85
2022-09-28T01:26:41.857Z,14.50
2022-09-28T01:29:18.162Z,14.56
2022-09-28T01:31:52.332Z,14.56
2022-09-28T01:34:27.488Z,14.84
2022-09-28T01:37:00.104Z,14.73
2022-09-28T01:39:32.571Z,14.83
2022-09-28T01:42:07.206Z,14.82
2022-09-28T01:44:39.937Z,14.71
2022-09-28T01:47:14.065Z,15.01
2022-09-28T01:49:47.682Z,15.00
2022-09-28T01:52:21.507Z,14.68
2022-09-28T01:54:54.470Z,14.48
2022-09-28T01:57:28.265Z,14.76
2022-09-28T02:00:02.290Z,14.76
2022-09-28T02:02:48.315Z,14.60
2022-09-28T02:05:22.667Z,14.72
2022-09-28T02:07:55.772Z,14.70
2022-09-28T02:10:28.701Z,14.96
2022-09-28T02:13:03.676Z,15.00
2022-09-28T02:15:36.465Z,14.82
2022-09-28T02:18:05.058Z,14.86
2022-09-28T02:20:35.478Z,14.96
2022-09-28T02:23:05.774Z,14.93
2022-09-28T02:25:41.688Z,14.85
2022-09-28T02:28:14.427Z,14.84
2022-09-28T02:30:45.082Z,14.56
2022-09-28T02:33:20.476Z,14.81
2022-09-28T02:35:48.618Z,14.52
2022-09-28T02:38:18.236Z,14.56
2022-09-28T02:40:58.623Z,14.51
2022-09-28T02:43:41.228Z,14.72
2022-09-28T02:46:25.586Z,14.65
2022-09-28T02:49:27.847Z,14.66
2022-09-28T02:52:26.683Z,14.83
2022-09-28T02:55:25.589Z,14.68
2022-09-28T02:58:18.327Z,14.92
2022-09-28T03:00:56.869Z,15.05
2022-09-28T03:03:35.706Z,15.13
2022-09-28T03:06:08.751Z,14.88
2022-09-28T03:08:47.283Z,14.76
2022-09-28T03:11:22.691Z,14.86
2022-09-28T03:13:52.940Z,14.89
2022-09-28T03:16:27.527Z,14.68
2022-09-28T03:18:55.908Z,14.88
2022-09-28T03:21:23.937Z,14.76
2022-09-28T03:23:52.443Z,14.77
2022-09-28T03:26:20.346Z,14.81
2022-09-28T03:28:48.417Z,14.73
2022-09-28T03:31:22.577Z,14.75
2022-09-28T03:33:52.971Z,14.58
2022-09-28T03:36:20.966Z,14.66
2022-09-28T03:38:49.100Z,14.86
2022-09-28T03:41:17.104Z,14.57
2022-09-28T03:43:45.258Z,14.88
2022-09-28T03:46:15.034Z,14.88
2022-09-28T03:48:47.786Z,14.66
2022-09-28T03:51:17.552Z,14.73
2022-09-28T03:53:45.510Z,14.46
2022-09-28T03:56:15.038Z,14.75
2022-09-28T03:58:44.038Z,14.96
2022-09-28T04:01:17.683Z,15.36
2022-09-28T04:03:48.432Z,14.88
2022-09-28T04:06:17.808Z,15.04
2022-09-28T04:08:45.738Z,15.06
2022-09-28T04:11:14.602Z,14.86
2022-09-28T04:13:42.807Z,14.69
2022-09-28T04:16:14.301Z,14.79
2022-09-28T04:18:46.587Z,14.75
2022-09-28T04:21:28.142Z,14.75
2022-09-28T04:24:02.474Z,14.69
2022-09-28T04:26:30.786Z,14.80
2022-09-28T04:29:16.108Z,14.82
2022-09-28T04:31:52.629Z,14.71
2022-09-28T04:34:23.370Z,14.69
2022-09-28T04:36:52.703Z,14.52
2022-09-28T04:39:21.559Z,14.85
2022-09-28T04:41:52.806Z,14.88
2022-09-28T04:44:20.782Z,15.12
2022-09-28T04:46:50.967Z,14.66
2022-09-28T04:49:41.695Z,14.99
2022-09-28T04:52:18.278Z,14.83
2022-09-28T04:54:50.788Z,14.88
2022-09-28T04:57:19.066Z,14.80
2022-09-28T04:59:47.651Z,14.82
2022-09-28T05:02:15.622Z,14.99
2022-09-28T05:05:02.251Z,15.02
2022-09-28T05:08:09.758Z,15.19
2022-09-28T05:10:40.392Z,14.85
2022-09-28T05:13:08.947Z,14.77
2022-09-28T05:15:41.686Z,14.72
2022-09-28T05:18:10.044Z,15.04
2022-09-28T05:20:46.678Z,14.87
2022-09-28T05:23:16.485Z,15.08
2022-09-28T05:25:45.312Z,15.25
2022-09-28T05:28:29.020Z,14.71
2022-09-28T05:31:29.676Z,14.97
2022-09-28T05:34:21.944Z,14.79
2022-09-28T05:36:49.874Z,14.79
2022-09-28T05:39:20.261Z,15.04
2022-09-28T05:41:48.281Z,14.91
2022-09-28T05:44:16.355Z,14.84
2022-09-28T05:46:44.768Z,15.18
2022-09-28T05:49:14.023Z,14.92
2022-09-28T05:51:41.942Z,15.02
2022-09-28T05:54:10.634Z,14.91
2022-09-28T05:56:43.891Z,14.58
2022-09-28T05:59:12.281Z,14.71
2022-09-28T06:01:40.485Z,14.71
2022-09-28T06:04:11.243Z,14.81
2022-09-28T06:06:39.632Z,14.81
2022-09-28T06:09:08.075Z,14.65
2022-09-28T06:11:46.036Z,15.04
2022-09-28T06:14:34.283Z,15.19
2022-09-28T06:17:02.368Z,14.68
2022-09-28T06:19:30.409Z,14.80
2022-09-28T06:22:09.014Z,15.15
2022-09-28T06:24:45.602Z,14.78
2022-09-28T06:27:15.007Z,14.60
2022-09-28T06:29:43.470Z,14.98
2022-09-28T06:32:12.426Z,15.05
2022-09-28T06:34:43.292Z,14.85
2022-09-28T06:37:11.304Z,14.99
2022-09-28T06:39:39.290Z,14.67
2022-09-28T06:42:07.336Z,14.44
2022-09-28T06:45:06.884Z,14.60
2022-09-28T06:47:54.271Z,14.95
2022-09-28T06:50:32.203Z,15.02
2022-09-28T06:53:24.875Z,14.92
2022-09-28T06:56:03.262Z,14.95
2022-09-28T06:58:33.136Z,15.04
2022-09-28T07:01:04.517Z,14.97
2022-09-28T07:03:43.996Z,14.96
2022-09-28T07:06:41.147Z,15.09
2022-09-28T07:09:32.665Z,15.23
2022-09-28T07:12:20.846Z,15.49
2022-09-28T07:14:57.293Z,15.26
2022-09-28T07:17:29.355Z,15.28
2022-09-28T07:20:10.070Z,15.23
2022-09-28T07:22:43.639Z,15.47
2022-09-28T07:25:17.318Z,15.28
2022-09-28T07:28:09.469Z,15.11
2022-09-28T07:30:57.739Z,15.44
2022-09-28T07:33:51.154Z,15.27
2022-09-28T07:36:36.632Z,15.40
2022-09-28T07:39:05.012Z,15.51
2022-09-28T07:41:32.773Z,15.53
2022-09-28T07:44:06.312Z,15.69
2022-09-28T07:46:37.799Z,15.63
2022-09-28T07:49:12.766Z,15.47
2022-09-28T07:51:56.437Z,15.52
2022-09-28T07:54:39.453Z,15.68
2022-09-28T07:57:27.647Z,15.65
2022-09-28T08:00:09.223Z,15.65
2022-09-28T08:02:45.259Z,15.79
2022-09-28T08:05:19.732Z,15.64
2022-09-28T08:07:48.544Z,15.51
2022-09-28T08:10:18.153Z,15.86
2022-09-28T08:13:12.630Z,15.90
2022-09-28T08:15:52.979Z,15.78
2022-09-28T08:18:39.470Z,15.66
2022-09-28T08:21:29.354Z,15.72
2022-09-28T08:23:57.533Z,15.74
2022-09-28T08:26:25.791Z,15.95
2022-09-28T08:28:53.881Z,16.08
2022-09-28T08:31:40.098Z,15.67
2022-09-28T08:34:22.532Z,15.50
2022-09-28T08:36:59.158Z,15.73
2022-09-28T08:39:41.883Z,16.00
2022-09-28T08:42:37.107Z,15.84
2022-09-28T08:45:28.523Z,15.95
2022-09-28T08:49:01.138Z,15.69
2022-09-28T08:52:01.723Z,16.05
2022-09-28T08:54:49.007Z,15.70
2022-09-28T08:57:31.986Z,15.75
2022-09-28T09:00:01.427Z,15.85
2022-09-28T09:02:39.771Z,15.85
2022-09-28T09:05:17.111Z,15.89
2022-09-28T09:08:20.170Z,15.95
2022-09-28T09:10:54.462Z,15.57
2022-09-28T09:13:56.029Z,15.83
2022-09-28T09:16:35.200Z,16.05
2022-09-28T09:19:35.566Z,16.26
2022-09-28T09:22:18.533Z,16.11
2022-09-28T09:24:52.879Z,16.15
2022-09-28T09:27:49.707Z,16.21
2022-09-28T09:30:22.077Z,16.06
2022-09-28T09:33:11.377Z,16.19
2022-09-28T09:36:10.774Z,16.05
2022-09-28T09:39:15.223Z,16.25
2022-09-28T09:42:22.309Z,16.31
2022-09-28T09:45:26.482Z,16.45
2022-09-28T09:48:13.703Z,16.31
2022-09-28T09:50:49.291Z,16.54
2022-09-28T09:53:25.314Z,16.38
2022-09-28T09:55:59.528Z,16.47
2022-09-28T09:58:54.682Z,16.33
2022-09-28T10:01:35.708Z,16.27
2022-09-28T10:04:40.376Z,16.38
2022-09-28T10:07:24.492Z,16.19
2022-09-28T10:10:00.692Z,16.37
2022-09-28T10:12:45.640Z,16.37
2022-09-28T10:15:20.258Z,16.44
2022-09-28T10:18:01.983Z,16.65
2022-09-28T10:20:59.113Z,16.71
2022-09-28T10:23:46.292Z,16.43
2022-09-28T10:26:25.322Z,16.53
2022-09-28T10:28:58.772Z,16.50
2022-09-28T10:31:43.850Z,16.47
2022-09-28T10:34:28.101Z,16.75
2022-09-28T10:37:00.593Z,16.89
2022-09-28T10:39:37.831Z,16.98
2022-09-28T10:42:09.655Z,16.71
2022-09-28T10:44:51.387Z,16.77
2022-09-28T10:47:45.453Z,16.75
2022-09-28T10:50:22.310Z,16.57
2022-09-28T10:52:54.207Z,16.61
2022-09-28T10:56:01.034Z,16.68
2022-09-28T10:58:35.050Z,16.32
2022-09-28T11:01:09.355Z,16.28
2022-09-28T11:03:50.917Z,16.50
2022-09-28T11:06:26.765Z,16.26
2022-09-28T11:08:57.679Z,16.17
2022-09-28T11:11:25.863Z,16.38
2022-09-28T11:14:03.461Z,16.40
2022-09-28T11:16:37.595Z,16.40
2022-09-28T11:19:28.764Z,16.30
2022-09-28T11:21:56.843Z,16.23
2022-09-28T11:24:33.071Z,16.40
2022-09-28T11:27:04.975Z,16.39
2022-09-28T11:29:38.647Z,16.45
2022-09-28T11:32:31.673Z,16.08
2022-09-28T11:35:24.078Z,16.32
2022-09-28T11:38:04.603Z,16.58
2022-09-28T11:41:07.496Z,16.30
2022-09-28T11:44:07.410Z,16.37
2022-09-28T11:46:45.307Z,16.55
2022-09-28T11:49:27.464Z,16.79
2022-09-28T11:52:01.807Z,16.74
2022-09-28T11:54:35.520Z,16.59
2022-09-28T11:57:06.410Z,16.35
2022-09-28T11:59:40.976Z,16.52
2022-09-28T12:02:16.920Z,16.63
2022-09-28T12:04:57.838Z,16.75
2022-09-28T12:07:35.644Z,16.53
2022-09-28T12:10:14.756Z,16.46
2022-09-28T12:12:51.263Z,16.52
2022-09-28T12:15:23.006Z,16.38
2022-09-28T12:17:55.953Z,16.24
2022-09-28T12:20:28.047Z,16.33
2022-09-28T12:23:05.072Z,16.30
2022-09-28T12:25:40.663Z,16.48
2022-09-28T12:28:18.149Z,16.57
2022-09-28T12:30:48.431Z,16.68
2022-09-28T12:33:16.592Z,16.47
2022-09-28T12:36:03.299Z,16.70
2022-09-28T12:39:17.558Z,16.61
2022-09-28T12:41:58.329Z,16.66
2022-09-28T12:44:48.176Z,16.63
2022-09-28T12:47:33.099Z,16.67
2022-09-28T12:53:21.742Z,16.84
2022-09-28T12:56:02.716Z,16.67
2022-09-28T12:58:54.043Z,16.63
2022-09-28T13:01:38.850Z,16.73
2022-09-28T13:04:26.068Z,16.80
2022-09-28T13:07:02.558Z,16.74
2022-09-28T13:09:39.239Z,16.68
2022-09-28T13:12:25.942Z,16.75
2022-09-28T13:15:29.126Z,16.86
2022-09-28T13:18:19.125Z,17.02
2022-09-28T13:21:04.477Z,16.86
2022-09-28T13:23:37.387Z,16.70
2022-09-28T13:26:14.522Z,16.69
2022-09-28T13:28:46.957Z,16.58
2022-09-28T13:31:21.163Z,16.70
2022-09-28T13:33:50.933Z,16.73
2022-09-28T13:36:39.280Z,16.76
2022-09-28T13:39:51.950Z,17.07
2022-09-28T13:42:37.106Z,16.93
2022-09-28T13:45:33.461Z,17.07
2022-09-28T13:48:13.775Z,17.07
2022-09-28T13:51:09.022Z,16.89
2022-09-28T13:53:51.050Z,16.81
2022-09-28T13:56:28.262Z,16.59
2022-09-28T13:59:02.379Z,16.75
2022-09-28T14:01:39.581Z,16.71
2022-09-28T14:04:19.638Z,16.80
2022-09-28T14:06:55.496Z,16.57
2022-09-28T14:09:43.969Z,16.72
2022-09-28T14:12:45.327Z,16.80
2022-09-28T14:15:46.191Z,16.77
2022-09-28T14:18:28.465Z,16.58
2022-09-28T14:21:08.149Z,16.56
2022-09-28T14:23:52.718Z,16.65
2022-09-28T14:26:48.553Z,16.86
2022-09-28T14:29:28.418Z,16.79
2022-09-28T14:31:58.822Z,16.76
2022-09-28T14:34:42.817Z,16.88
2022-09-28T14:37:46.654Z,16.60
2022-09-28T14:40:51.106Z,16.84
2022-09-28T14:43:27.510Z,16.73
2022-09-28T14:46:29.334Z,16.76
2022-09-28T14:49:01.678Z,16.76
2022-09-28T14:52:04.279Z,16.48
2022-09-28T14:54:54.129Z,16.38
2022-09-28T14:57:26.419Z,16.47
2022-09-28T14:59:57.018Z,16.49
2022-09-28T15:02:30.356Z,16.39
2022-09-28T15:05:02.317Z,16.52
2022-09-28T15:07:46.120Z,16.55
2022-09-28T15:10:27.478Z,16.66
2022-09-28T15:12:57.227Z,16.60
2022-09-28T15:15:35.571Z,16.78
2022-09-28T15:18:33.268Z,16.71
2022-09-28T15:21:01.607Z,16.47
2022-09-28T15:23:37.311Z,16.52
2022-09-28T15:26:08.465Z,16.56
2022-09-28T15:28:39.326Z,16.58
2022-09-28T15:31:07.398Z,16.52
2022-09-28T15:33:53.817Z,16.54
2022-09-28T15:36:25.045Z,16.80
2022-09-28T15:38:58.463Z,16.29
2022-09-28T15:41:27.436Z,16.48
2022-09-28T15:44:23.582Z,16.58
2022-09-28T15:46:52.155Z,16.40
2022-09-28T15:49:28.036Z,16.54
2022-09-28T15:51:57.259Z,16.15
2022-09-28T15:54:35.076Z,16.24
2022-09-28T15:57:04.192Z,16.40
2022-09-28T15:59:34.792Z,16.40
2022-09-28T16:02:10.809Z,16.25
2022-09-28T16:04:50.350Z,16.54
2022-09-28T16:07:33.276Z,16.43
2022-09-28T16:10:16.379Z,16.50
2022-09-28T16:12:48.882Z,16.34
2022-09-28T16:15:21.764Z,16.35
2022-09-28T16:17:56.800Z,16.49
2022-09-28T16:20:29.566Z,16.47
2022-09-28T16:23:05.559Z,16.48
2022-09-28T16:25:39.090Z,16.63
2022-09-28T16:28:07.607Z,16.64
2022-09-28T16:30:36.066Z,16.55
2022-09-28T16:33:06.839Z,16.45
2022-09-28T16:35:51.871Z,16.41
2022-09-28T16:38:21.038Z,16.31
2022-09-28T16:40:53.917Z,16.33
2022-09-28T16:43:27.060Z,16.37
2022-09-28T16:45:57.775Z,16.33
2022-09-28T16:48:28.030Z,16.32
2022-09-28T16:50:56.235Z,16.28
2022-09-28T16:53:50.129Z,16.21
2022-09-28T16:56:19.593Z,16.24
2022-09-28T16:58:50.376Z,16.22
2022-09-28T17:01:19.789Z,16.01
2022-09-28T17:03:50.050Z,15.81
2022-09-28T17:06:19.574Z,15.99
2022-09-28T17:08:47.783Z,16.06
2022-09-28T17:11:22.785Z,15.75
2022-09-28T17:13:58.219Z,15.90
2022-09-28T17:16:57.344Z,15.78
2022-09-28T17:19:25.077Z,15.82
2022-09-28T17:21:53.988Z,15.58
2022-09-28T17:24:24.672Z,15.81
2022-09-28T17:26:53.289Z,15.78
2022-09-28T17:29:22.613Z,15.58
2022-09-28T17:31:50.677Z,15.79
2022-09-28T17:34:19.880Z,15.93
2022-09-28T17:36:48.455Z,15.76
2022-09-28T17:39:18.480Z,16.02
2022-09-28T17:41:46.791Z,15.57
2022-09-28T17:44:19.299Z,15.80
2022-09-28T17:46:50.747Z,15.79
2022-09-28T17:49:19.193Z,15.78
2022-09-28T17:51:47.159Z,15.47
2022-09-28T17:54:17.046Z,15.75
2022-09-28T17:56:46.130Z,15.87
2022-09-28T17:59:19.840Z,15.93
2022-09-28T18:01:49.327Z,15.85
2022-09-28T18:04:47.094Z,15.80
2022-09-28T18:07:07.455Z,15.38
2022-09-28T18:09:35.291Z,15.57
2022-09-28T18:12:05.774Z,15.53
2022-09-28T18:14:33.799Z,15.31
2022-09-28T18:17:02.976Z,15.42
2022-09-28T18:19:32.297Z,15.71
2022-09-28T18:22:01.582Z,15.56
2022-09-28T18:24:29.778Z,15.72
2022-09-28T18:26:57.625Z,15.53
2022-09-28T18:29:26.219Z,15.61
2022-09-28T18:31:55.276Z,15.68
2022-09-28T18:34:24.641Z,15.62
2022-09-28T18:36:52.443Z,15.31
2022-09-28T18:39:20.434Z,15.52
2022-09-28T18:41:48.507Z,15.45
2022-09-28T18:44:16.378Z,15.46
2022-09-28T18:46:44.541Z,15.42
2022-09-28T18:49:12.503Z,15.55
2022-09-28T18:51:41.845Z,15.61
2022-09-28T18:54:09.650Z,15.54
2022-09-28T18:56:38.119Z,15.41
2022-09-28T18:59:09.962Z,15.57
2022-09-28T19:01:41.685Z,15.51
2022-09-28T19:04:13.576Z,15.33
2022-09-28T19:06:44.492Z,15.61
2022-09-28T19:09:13.286Z,15.22
2022-09-28T19:11:41.296Z,14.92
2022-09-28T19:14:11.579Z,15.28
2022-09-28T19:16:39.651Z,14.71
2022-09-28T19:19:07.626Z,14.74
2022-09-28T19:21:35.725Z,14.71
2022-09-28T19:24:05.839Z,15.01
2022-09-28T19:26:34.380Z,14.73
2022-09-28T19:29:03.026Z,14.72
2022-09-28T19:31:31.262Z,14.59
2022-09-28T19:33:59.478Z,14.62
2022-09-28T19:36:29.187Z,15.01
2022-09-28T19:38:58.552Z,14.87
2022-09-28T19:41:51.425Z,14.58
2022-09-28T19:44:25.626Z,14.63
2022-09-28T19:46:55.709Z,14.97
2022-09-28T19:49:25.356Z,14.69
2022-09-28T19:52:13.927Z,14.79
2022-09-28T19:54:45.562Z,14.50
2022-09-28T19:57:18.652Z,14.68
2022-09-28T19:59:52.367Z,14.73
2022-09-28T20:02:21.240Z,14.76
2022-09-28T20:04:49.495Z,14.58
2022-09-28T20:07:17.644Z,14.61
2022-09-28T20:09:45.724Z,14.61
2022-09-28T20:12:16.637Z,14.74
2022-09-28T20:14:44.603Z,14.43
2022-09-28T20:17:12.560Z,14.69
2022-09-28T20:19:40.545Z,14.21
2022-09-28T20:22:08.492Z,14.07
2022-09-28T20:24:36.415Z,14.53
2022-09-28T20:27:04.278Z,14.58
2022-09-28T20:29:34.717Z,14.82
2022-09-28T20:32:04.013Z,14.41
2022-09-28T20:34:33.520Z,14.56
2022-09-28T20:37:01.987Z,14.13
2022-09-28T20:39:29.955Z,14.12
2022-09-28T20:41:57.841Z,13.96
2022-09-28T20:44:25.807Z,14.13
2022-09-28T20:46:56.747Z,14.06
2022-09-28T20:49:24.727Z,14.37
2022-09-28T20:51:52.629Z,14.54
2022-09-28T20:54:24.310Z,14.10
2022-09-28T20:56:52.580Z,14.36
2022-09-28T20:59:22.820Z,13.96
2022-09-28T21:01:51.087Z,13.86
2022-09-28T21:04:20.775Z,13.36
2022-09-28T21:06:49.812Z,13.23
2022-09-28T21:09:17.684Z,13.55
2022-09-28T21:11:46.375Z,13.42
2022-09-28T21:14:14.275Z,13.43
2022-09-28T21:16:42.238Z,13.23
2022-09-28T21:19:10.171Z,13.27
2022-09-28T21:21:40.527Z,13.62
2022-09-28T21:24:09.193Z,13.50
2022-09-28T21:26:37.370Z,13.89
2022-09-28T21:29:07.310Z,14.00
2022-09-28T21:31:39.834Z,13.45
2022-09-28T21:34:08.477Z,13.37
2022-09-28T21:36:36.376Z,13.33
2022-09-28T21:39:10.083Z,13.90
2022-09-28T21:41:38.463Z,13.91
2022-09-28T21:44:06.973Z,13.73
2022-09-28T21:46:35.422Z,13.35
2022-09-28T21:49:04.327Z,13.45
2022-09-28T21:51:32.314Z,13.49
2022-09-28T21:54:00.698Z,13.52
2022-09-28T21:56:30.061Z,13.77
2022-09-28T21:59:01.299Z,13.61
2022-09-28T22:01:29.668Z,13.45
2022-09-28T22:03:57.891Z,13.39
2022-09-28T22:06:28.944Z,13.44
2022-09-28T22:08:57.551Z,13.83
2022-09-28T22:11:27.049Z,13.15
2022-09-28T22:13:58.594Z,13.59
2022-09-28T22:16:28.723Z,13.74
2022-09-28T22:18:56.873Z,13.52
2022-09-28T22:21:26.915Z,13.46
2022-09-28T22:23:55.175Z,13.32
2022-09-28T22:26:24.911Z,13.18
2022-09-28T22:28:54.517Z,13.25
2022-09-28T22:31:25.823Z,13.40
2022-09-28T22:33:53.826Z,13.21
2022-09-28T22:36:22.171Z,13.49
2022-09-28T22:38:50.446Z,13.57
2022-09-28T22:41:20.831Z,13.61
2022-09-28T22:43:49.600Z,12.96
2022-09-28T22:46:20.065Z,13.50
2022-09-28T22:48:51.008Z,13.53
2022-09-28T22:51:19.318Z,13.48
2022-09-28T22:53:47.721Z,13.01
2022-09-28T22:56:18.926Z,13.11
2022-09-28T22:58:47.766Z,13.15
2022-09-28T23:01:18.569Z,13.19
2022-09-28T23:03:47.045Z,13.46
2022-09-28T23:06:18.070Z,13.21
2022-09-28T23:08:47.376Z,12.89
2022-09-28T23:11:15.512Z,12.97
2022-09-28T23:13:43.595Z,13.05
2022-09-28T23:16:13.135Z,13.22
2022-09-28T23:18:42.046Z,13.08
2022-09-28T23:21:12.286Z,13.06
2022-09-28T23:23:41.797Z,13.28
2022-09-28T23:26:14.137Z,13.32
2022-09-28T23:28:42.309Z,13.52
2022-09-28T23:31:11.930Z,13.69
2022-09-28T23:33:40.001Z,13.27
2022-09-28T23:36:08.884Z,13.05
2022-09-28T23:38:37.217Z,13.18
2022-09-28T23:41:06.988Z,13.02
2022-09-28T23:43:36.169Z,13.03
2022-09-28T23:46:04.483Z,12.64
2022-09-28T23:48:33.081Z,12.71
2022-09-28T23:51:01.228Z,12.44
2022-09-28T23:53:29.767Z,12.72
2022-09-28T23:55:57.658Z,12.75
2022-09-28T23:58:27.672Z,12.89
